createdAt,value
2023-01-09T00:00:25.189Z,99354.88
2023-01-09T00:03:26.939Z,99362.66
2023-01-09T00:06:28.634Z,99352.78
2023-01-09T00:09:30.206Z,99352.94
2023-01-09T00:12:32.995Z,99355.63
2023-01-09T00:15:34.500Z,99359.88
2023-01-09T00:18:36.942Z,99353.13
2023-01-09T00:21:38.597Z,99354.94
2023-01-09T00:24:40.130Z,99356.81
2023-01-09T00:27:41.603Z,99349.84
2023-01-09T00:30:43.159Z,99352.56
2023-01-09T00:33:50.381Z,99355.38
2023-01-09T00:36:51.960Z,99345.00
2023-01-09T00:39:53.440Z,99345.06
2023-01-09T00:42:56.722Z,99343.47
2023-01-09T00:46:00.755Z,99334.06
2023-01-09T00:49:05.243Z,99337.34
2023-01-09T00:52:10.144Z,99338.44
2023-01-09T00:55:13.753Z,99338.47
2023-01-09T00:58:15.358Z,99345.59
2023-01-09T01:01:16.909Z,99337.63
2023-01-09T01:04:18.481Z,99348.91
2023-01-09T01:07:19.966Z,99338.72
2023-01-09T01:10:24.233Z,99339.72
2023-01-09T01:13:25.571Z,99339.97
2023-01-09T01:16:27.160Z,99348.47
2023-01-09T01:19:28.866Z,99353.84
2023-01-09T01:22:30.507Z,99358.81
2023-01-09T01:25:32.097Z,99358.94
2023-01-09T01:28:33.707Z,99364.72
2023-01-09T01:31:35.301Z,99359.22
2023-01-09T01:34:36.912Z,99371.31
2023-01-09T01:37:39.110Z,99367.53
2023-01-09T01:40:40.615Z,99368.34
2023-01-09T01:44:36.257Z,99362.03
2023-01-09T01:47:50.161Z,99363.66
2023-01-09T01:51:06.111Z,99364.50
2023-01-09T01:54:12.545Z,99370.50
2023-01-09T01:57:14.947Z,99362.72
2023-01-09T02:00:20.181Z,99365.47
2023-01-09T02:03:27.071Z,99368.81
2023-01-09T02:06:30.003Z,99376.69
2023-01-09T02:09:31.771Z,99367.25
2023-01-09T02:12:33.290Z,99374.38
2023-01-09T02:15:50.687Z,99371.31
2023-01-09T02:19:07.174Z,99370.50
2023-01-09T02:22:23.865Z,99382.00
2023-01-09T02:26:13.272Z,99382.94
2023-01-09T02:29:30.992Z,99379.38
2023-01-09T02:32:58.118Z,99380.28
2023-01-09T02:36:12.239Z,99379.56
2023-01-09T02:39:22.735Z,99383.00
2023-01-09T02:42:26.085Z,99390.72
2023-01-09T02:45:27.791Z,99386.75
2023-01-09T02:48:30.495Z,99379.88
2023-01-09T02:51:51.262Z,99383.66
2023-01-09T02:55:19.171Z,99384.69
2023-01-09T02:58:38.762Z,99376.03
2023-01-09T03:01:43.301Z,99373.66
2023-01-09T03:05:26.283Z,99382.38
2023-01-09T03:08:36.552Z,99370.22
2023-01-09T03:11:44.844Z,99364.34
2023-01-09T03:14:50.788Z,99367.72
2023-01-09T03:17:53.097Z,99369.31
2023-01-09T03:20:55.032Z,99360.84
2023-01-09T03:23:59.865Z,99362.56
2023-01-09T03:27:01.417Z,99358.94
2023-01-09T03:30:03.366Z,99353.84
2023-01-09T03:33:04.955Z,99355.56
2023-01-09T03:36:07.461Z,99352.56
2023-01-09T03:39:08.969Z,99343.84
2023-01-09T03:42:10.481Z,99355.38
2023-01-09T03:45:12.289Z,99348.63
2023-01-09T03:48:13.997Z,99357.41
2023-01-09T03:51:15.616Z,99364.66
2023-01-09T03:54:17.103Z,99366.50
2023-01-09T03:57:18.573Z,99362.16
2023-01-09T04:00:21.161Z,99360.28
2023-01-09T04:03:22.643Z,99360.38
2023-01-09T04:06:24.109Z,99362.09
2023-01-09T04:09:25.752Z,99350.69
2023-01-09T04:12:27.289Z,99350.63
2023-01-09T04:15:28.845Z,99353.13
2023-01-09T04:18:30.323Z,99363.34
2023-01-09T04:21:32.090Z,99360.66
2023-01-09T04:24:33.553Z,99367.47
2023-01-09T04:27:35.075Z,99353.41
2023-01-09T04:30:36.617Z,99349.75
2023-01-09T04:33:38.076Z,99348.88
2023-01-09T04:36:39.601Z,99337.66
2023-01-09T04:39:42.647Z,99340.28
2023-01-09T04:42:44.171Z,99333.41
2023-01-09T04:45:45.748Z,99326.63
2023-01-09T04:48:47.302Z,99336.97
2023-01-09T04:51:49.290Z,99340.59
2023-01-09T04:54:50.872Z,99340.41
2023-01-09T04:57:52.377Z,99328.91
2023-01-09T05:00:54.022Z,99325.50
2023-01-09T05:03:55.807Z,99321.44
2023-01-09T05:06:57.328Z,99325.75
2023-01-09T05:09:58.810Z,99318.50
2023-01-09T05:13:00.294Z,99321.78
2023-01-09T05:16:01.861Z,99314.72
2023-01-09T05:19:03.375Z,99331.91
2023-01-09T05:22:05.248Z,99318.69
2023-01-09T05:25:07.108Z,99328.00
2023-01-09T05:28:08.775Z,99321.00
2023-01-09T05:31:10.679Z,99313.97
2023-01-09T05:34:12.130Z,99314.03
2023-01-09T05:37:13.590Z,99310.47
2023-01-09T05:40:15.213Z,99316.59
2023-01-09T05:43:16.691Z,99312.19
2023-01-09T05:46:18.287Z,99306.13
2023-01-09T05:49:19.820Z,99307.72
2023-01-09T05:52:21.383Z,99299.84
2023-01-09T05:55:22.978Z,99297.88
2023-01-09T05:58:24.589Z,99307.41
2023-01-09T06:01:26.221Z,99301.19
2023-01-09T06:04:27.854Z,99290.72
2023-01-09T06:07:29.437Z,99291.53
2023-01-09T06:10:30.908Z,99292.34
2023-01-09T06:13:32.409Z,99290.47
2023-01-09T06:16:33.893Z,99295.72
2023-01-09T06:19:35.466Z,99292.06
2023-01-09T06:22:36.972Z,99285.72
2023-01-09T06:25:38.412Z,99283.16
2023-01-09T06:28:39.897Z,99286.75
2023-01-09T06:31:41.443Z,99279.63
2023-01-09T06:34:42.977Z,99291.69
2023-01-09T06:37:44.517Z,99276.78
2023-01-09T06:40:47.226Z,99279.34
2023-01-09T06:43:48.740Z,99282.78
2023-01-09T06:46:50.270Z,99274.97
2023-01-09T06:49:51.797Z,99281.16
2023-01-09T06:52:53.443Z,99281.88
2023-01-09T06:55:55.026Z,99276.56
2023-01-09T06:58:56.524Z,99282.56
2023-01-09T07:01:58.110Z,99285.91
2023-01-09T07:04:59.708Z,99280.69
2023-01-09T07:08:01.231Z,99286.63
2023-01-09T07:11:02.826Z,99289.25
2023-01-09T07:14:04.382Z,99294.38
2023-01-09T07:17:05.918Z,99296.13
2023-01-09T07:20:07.988Z,99306.31
2023-01-09T07:23:12.818Z,99315.03
2023-01-09T07:26:14.350Z,99320.34
2023-01-09T07:29:15.854Z,99323.00
2023-01-09T07:32:17.492Z,99324.63
2023-01-09T07:35:19.051Z,99335.75
2023-01-09T07:38:20.565Z,99346.13
2023-01-09T07:41:22.151Z,99351.31
2023-01-09T07:44:23.799Z,99359.88
2023-01-09T07:47:25.252Z,99369.47
2023-01-09T07:50:26.766Z,99378.00
2023-01-09T07:53:28.346Z,99384.00
2023-01-09T07:56:29.985Z,99382.38
2023-01-09T07:59:33.815Z,99404.13
2023-01-09T08:02:35.404Z,99410.22
2023-01-09T08:05:36.964Z,99411.03
2023-01-09T08:08:38.505Z,99428.59
2023-01-09T08:11:40.120Z,99431.13
2023-01-09T08:14:41.688Z,99451.34
2023-01-09T08:17:45.041Z,99464.34
2023-01-09T08:20:48.948Z,99466.16
2023-01-09T08:23:50.573Z,99475.84
2023-01-09T08:26:52.047Z,99477.81
2023-01-09T08:29:53.497Z,99489.06
2023-01-09T08:32:55.067Z,99490.00
2023-01-09T08:35:56.643Z,99496.00
2023-01-09T08:38:58.246Z,99501.91
2023-01-09T08:41:59.781Z,99505.31
2023-01-09T08:45:01.288Z,99512.81
2023-01-09T08:48:02.878Z,99523.91
2023-01-09T08:51:04.398Z,99521.94
2023-01-09T08:54:05.950Z,99527.03
2023-01-09T08:57:08.035Z,99545.03
2023-01-09T09:00:10.232Z,99558.75
2023-01-09T09:03:11.804Z,99567.25
2023-01-09T09:06:13.384Z,99566.22
2023-01-09T09:09:15.074Z,99565.25
2023-01-09T09:12:16.591Z,99581.31
2023-01-09T09:15:18.639Z,99587.25
2023-01-09T09:18:20.170Z,99592.44
2023-01-09T09:21:21.707Z,99598.59
2023-01-09T09:24:23.226Z,99600.34
2023-01-09T09:27:24.825Z,99613.44
2023-01-09T09:30:26.483Z,99613.56
2023-01-09T09:33:28.016Z,99613.22
2023-01-09T09:36:29.578Z,99623.38
2023-01-09T09:39:31.080Z,99624.19
2023-01-09T09:42:44.379Z,99630.13
2023-01-09T09:45:56.161Z,99637.09
2023-01-09T09:49:28.987Z,99644.03
2023-01-09T09:52:49.929Z,99649.88
2023-01-09T09:55:51.905Z,99671.59
2023-01-09T09:59:12.905Z,99682.13
2023-01-09T10:02:29.012Z,99687.72
2023-01-09T10:05:34.905Z,99695.47
2023-01-09T10:08:44.984Z,99700.09
2023-01-09T10:12:24.363Z,99713.69
2023-01-09T10:15:36.004Z,99722.69
2023-01-09T10:18:42.247Z,99722.41
2023-01-09T10:22:03.140Z,99725.56
2023-01-09T10:25:24.901Z,99729.22
2023-01-09T10:28:32.394Z,99736.59
2023-01-09T10:31:53.737Z,99742.88
2023-01-09T10:35:23.193Z,99747.88
2023-01-09T10:38:34.530Z,99756.09
2023-01-09T10:42:10.571Z,99766.72
2023-01-09T10:45:53.291Z,99781.75
2023-01-09T10:49:00.406Z,99782.59
2023-01-09T10:52:24.952Z,99778.19
2023-01-09T10:55:32.611Z,99790.03
2023-01-09T10:58:34.311Z,99789.84
2023-01-09T11:01:39.685Z,99794.16
2023-01-09T11:04:41.871Z,99792.66
2023-01-09T11:07:48.248Z,99798.84
2023-01-09T11:10:52.853Z,99794.53
2023-01-09T11:14:05.549Z,99799.41
2023-01-09T11:17:19.439Z,99808.59
2023-01-09T11:20:29.750Z,99802.31
2023-01-09T11:23:34.159Z,99805.63
2023-01-09T11:26:40.209Z,99807.47
2023-01-09T11:29:44.337Z,99812.81
2023-01-09T11:32:47.598Z,99817.38
2023-01-09T11:36:04.291Z,99819.09
2023-01-09T11:39:05.883Z,99821.13
2023-01-09T11:42:18.813Z,99832.84
2023-01-09T11:45:21.655Z,99839.56
2023-01-09T11:49:09.413Z,99843.06
2023-01-09T11:52:19.850Z,99853.84
2023-01-09T11:55:22.563Z,99851.28
2023-01-09T11:58:25.359Z,99849.69
2023-01-09T12:01:54.362Z,99856.03
2023-01-09T12:05:16.608Z,99868.31
2023-01-09T12:08:30.174Z,99865.78
2023-01-09T12:11:47.602Z,99862.31
2023-01-09T12:15:13.954Z,99877.22
2023-01-09T12:18:40.846Z,99873.69
2023-01-09T12:22:13.366Z,99863.28
2023-01-09T12:25:40.313Z,99884.47
2023-01-09T12:28:53.533Z,99884.38
2023-01-09T12:32:18.263Z,99878.97
2023-01-09T12:35:33.403Z,99880.38
2023-01-09T12:38:53.957Z,99888.75
2023-01-09T12:42:07.973Z,99890.97
2023-01-09T12:45:33.802Z,99895.09
2023-01-09T12:48:35.338Z,99891.13
2023-01-09T12:51:59.319Z,99891.41
2023-01-09T12:55:23.522Z,99893.38
2023-01-09T12:58:31.280Z,99909.22
2023-01-09T13:01:39.024Z,99899.84
2023-01-09T13:04:56.781Z,99904.72
2023-01-09T13:08:25.495Z,99913.34
2023-01-09T13:11:48.980Z,99925.16
2023-01-09T13:15:05.657Z,99934.63
2023-01-09T13:18:20.836Z,99931.75
2023-01-09T13:21:22.555Z,99940.06
2023-01-09T13:25:06.920Z,99952.69
2023-01-09T13:28:36.662Z,99946.63
2023-01-09T13:32:08.895Z,99959.66
2023-01-09T13:35:13.740Z,99966.66
2023-01-09T13:38:21.947Z,99947.13
2023-01-09T13:41:24.425Z,99959.59
2023-01-09T13:44:28.469Z,99965.84
2023-01-09T13:47:30.072Z,99973.50
2023-01-09T13:50:31.702Z,99983.63
2023-01-09T13:53:33.233Z,99973.19
2023-01-09T13:57:13.367Z,99981.78
2023-01-09T14:00:14.849Z,99988.56
2023-01-09T14:03:26.747Z,99988.88
2023-01-09T14:06:28.320Z,100004.16
2023-01-09T14:09:30.577Z,100008.97
2023-01-09T14:12:39.456Z,100004.94
2023-01-09T14:15:43.328Z,100031.25
2023-01-09T14:18:49.497Z,100032.16
2023-01-09T14:21:54.944Z,100039.88
2023-01-09T14:25:04.094Z,100040.03
2023-01-09T14:28:18.648Z,100043.81
2023-01-09T14:31:32.253Z,100055.34
2023-01-09T14:34:38.893Z,100060.22
2023-01-09T14:37:42.259Z,100073.50
2023-01-09T14:41:22.626Z,100087.81
2023-01-09T14:44:42.519Z,100098.38
2023-01-09T14:47:53.336Z,100106.22
2023-01-09T14:50:59.758Z,100099.50
2023-01-09T14:54:10.507Z,100109.09
2023-01-09T14:57:30.172Z,100123.88
2023-01-09T15:00:31.693Z,100126.63
2023-01-09T15:03:33.143Z,100139.72
2023-01-09T15:06:40.620Z,100145.63
2023-01-09T15:09:45.738Z,100149.50
2023-01-09T15:12:49.876Z,100156.44
2023-01-09T15:15:51.431Z,100162.69
2023-01-09T15:19:03.761Z,100158.91
2023-01-09T15:22:07.293Z,100176.84
2023-01-09T15:25:33.877Z,100185.06
2023-01-09T15:28:42.852Z,100203.72
2023-01-09T15:31:48.212Z,100199.38
2023-01-09T15:34:50.095Z,100202.06
2023-01-09T15:37:53.553Z,100205.44
2023-01-09T15:41:04.415Z,100211.78
2023-01-09T15:44:11.962Z,100214.31
2023-01-09T15:47:24.488Z,100223.13
2023-01-09T15:50:29.380Z,100225.75
2023-01-09T15:53:31.048Z,100226.59
2023-01-09T15:56:32.612Z,100228.38
2023-01-09T15:59:34.189Z,100234.47
2023-01-09T16:02:37.073Z,100239.03
2023-01-09T16:05:44.573Z,100246.56
2023-01-09T16:08:51.742Z,100242.25
2023-01-09T16:11:56.328Z,100267.56
2023-01-09T16:15:00.489Z,100282.16
2023-01-09T16:18:14.155Z,100302.09
2023-01-09T16:21:34.498Z,100300.78
2023-01-09T16:24:41.037Z,100305.47
2023-01-09T16:27:42.554Z,100307.41
2023-01-09T16:31:17.296Z,100324.16
2023-01-09T16:34:19.109Z,100335.63
2023-01-09T16:37:25.273Z,100334.78
2023-01-09T16:40:27.537Z,100348.72
2023-01-09T16:43:29.005Z,100349.44
2023-01-09T16:46:30.518Z,100364.16
2023-01-09T16:49:32.132Z,100363.28
2023-01-09T16:52:34.071Z,100370.28
2023-01-09T16:55:37.505Z,100360.81
2023-01-09T16:58:39.056Z,100365.13
2023-01-09T17:01:41.326Z,100371.28
2023-01-09T17:04:42.999Z,100380.78
2023-01-09T17:07:44.517Z,100388.59
2023-01-09T17:10:45.982Z,100394.66
2023-01-09T17:13:48.103Z,100400.81
2023-01-09T17:16:49.751Z,100401.75
2023-01-09T17:19:51.311Z,100426.28
2023-01-09T17:22:52.773Z,100424.69
2023-01-09T17:25:57.927Z,100424.75
2023-01-09T17:28:59.444Z,100433.50
2023-01-09T17:32:01.153Z,100444.91
2023-01-09T17:35:02.697Z,100444.88
2023-01-09T17:38:04.221Z,100449.38
2023-01-09T17:41:05.706Z,100461.53
2023-01-09T17:44:07.483Z,100464.16
2023-01-09T17:47:15.480Z,100470.22
2023-01-09T17:50:19.346Z,100487.72
2023-01-09T17:53:20.825Z,100493.03
2023-01-09T17:56:27.958Z,100496.53
2023-01-09T17:59:29.548Z,100505.25
2023-01-09T18:02:31.104Z,100514.56
2023-01-09T18:05:33.174Z,100512.59
2023-01-09T18:08:34.859Z,100518.78
2023-01-09T18:11:36.368Z,100522.31
2023-01-09T18:14:38.096Z,100524.88
2023-01-09T18:17:39.578Z,100534.59
2023-01-09T18:20:44.444Z,100544.28
2023-01-09T18:23:47.573Z,100539.88
2023-01-09T18:26:49.187Z,100554.75
2023-01-09T18:29:50.677Z,100564.28
2023-01-09T18:32:52.443Z,100569.66
2023-01-09T18:35:54.009Z,100577.56
2023-01-09T18:38:57.184Z,100581.94
2023-01-09T18:41:58.867Z,100600.22
2023-01-09T18:45:00.321Z,100594.16
2023-01-09T18:48:01.831Z,100608.97
2023-01-09T18:51:07.979Z,100613.31
2023-01-09T18:54:09.894Z,100624.47
2023-01-09T18:57:12.027Z,100630.69
2023-01-09T19:00:14.664Z,100635.16
2023-01-09T19:03:16.189Z,100637.72
2023-01-09T19:06:17.746Z,100646.38
2023-01-09T19:09:19.273Z,100656.75
2023-01-09T19:12:20.814Z,100664.47
2023-01-09T19:15:22.363Z,100673.16
2023-01-09T19:18:25.173Z,100679.22
2023-01-09T19:21:26.765Z,100689.66
2023-01-09T19:24:28.320Z,100689.69
2023-01-09T19:27:29.806Z,100697.47
2023-01-09T19:30:31.342Z,100704.38
2023-01-09T19:33:32.959Z,100710.50
2023-01-09T19:36:34.509Z,100712.34
2023-01-09T19:39:36.020Z,100721.16
2023-01-09T19:42:37.553Z,100731.63
2023-01-09T19:45:39.070Z,100737.81
2023-01-09T19:48:40.947Z,100733.25
2023-01-09T19:51:42.506Z,100733.16
2023-01-09T19:54:44.005Z,100741.84
2023-01-09T19:57:45.649Z,100748.81
2023-01-09T20:00:47.169Z,100760.13
2023-01-09T20:03:49.036Z,100759.34
2023-01-09T20:06:50.535Z,100768.91
2023-01-09T20:09:52.022Z,100767.25
2023-01-09T20:12:53.530Z,100783.91
2023-01-09T20:15:57.944Z,100789.13
2023-01-09T20:19:01.837Z,100795.38
2023-01-09T20:22:03.332Z,100795.41
2023-01-09T20:25:05.225Z,100809.50
2023-01-09T20:28:06.689Z,100819.97
2023-01-09T20:31:13.678Z,100823.50
2023-01-09T20:34:15.462Z,100827.03
2023-01-09T20:37:16.958Z,100831.47
2023-01-09T20:40:18.443Z,100841.00
2023-01-09T20:43:19.949Z,100852.34
2023-01-09T20:46:22.908Z,100859.34
2023-01-09T20:49:24.401Z,100858.47
2023-01-09T20:52:25.936Z,100868.13
2023-01-09T20:55:27.454Z,100875.09
2023-01-09T20:58:28.912Z,100880.28
2023-01-09T21:01:30.353Z,100888.09
2023-01-09T21:04:31.939Z,100890.75
2023-01-09T21:07:33.715Z,100891.66
2023-01-09T21:10:35.213Z,100897.75
2023-01-09T21:13:37.079Z,100890.78
2023-01-09T21:16:38.556Z,100903.03
2023-01-09T21:19:40.050Z,100903.00
2023-01-09T21:22:42.176Z,100911.69
2023-01-09T21:25:43.631Z,100914.31
2023-01-09T21:28:45.194Z,100910.75
2023-01-09T21:31:46.710Z,100912.47
2023-01-09T21:34:48.241Z,100916.84
2023-01-09T21:37:49.840Z,100917.75
2023-01-09T21:40:52.581Z,100938.72
2023-01-09T21:43:54.083Z,100935.25
2023-01-09T21:46:56.159Z,100933.53
2023-01-09T21:49:57.653Z,100943.09
2023-01-09T21:52:59.500Z,100945.66
2023-01-09T21:56:03.404Z,100951.75
2023-01-09T21:59:04.915Z,100946.53
2023-01-09T22:02:06.550Z,100954.44
2023-01-09T22:05:08.143Z,100959.69
2023-01-09T22:08:09.680Z,100965.81
2023-01-09T22:11:11.181Z,100971.94
2023-01-09T22:14:14.876Z,100979.75
2023-01-09T22:17:16.360Z,100988.50
2023-01-09T22:20:17.981Z,100991.09
2023-01-09T22:23:19.442Z,100993.69
2023-01-09T22:26:21.484Z,101004.13
2023-01-09T22:29:23.079Z,101016.34
2023-01-09T22:32:24.585Z,101016.38
2023-01-09T22:35:26.187Z,101024.19
2023-01-09T22:38:27.700Z,101025.06
2023-01-09T22:41:30.160Z,101031.16
2023-01-09T22:44:31.597Z,101034.66
2023-01-09T22:47:33.099Z,101049.44
2023-01-09T22:50:34.763Z,101070.31
2023-01-09T22:53:36.214Z,101085.09
2023-01-09T22:56:37.711Z,101086.88
2023-01-09T22:59:39.173Z,101097.34
2023-01-09T23:02:40.797Z,101107.81
2023-01-09T23:05:42.446Z,101111.31
2023-01-09T23:08:44.496Z,101117.44
2023-01-09T23:11:45.982Z,101122.69
2023-01-09T23:14:47.465Z,101114.84
2023-01-09T23:17:49.008Z,101120.06
2023-01-09T23:20:55.521Z,101114.81
2023-01-09T23:23:57.045Z,101126.13
2023-01-09T23:26:59.227Z,101121.72
2023-01-09T23:30:00.751Z,101131.31
2023-01-09T23:33:02.225Z,101146.09
2023-01-09T23:36:04.109Z,101148.72
2023-01-09T23:39:05.587Z,101159.19
2023-01-09T23:42:07.045Z,101160.00
2023-01-09T23:45:08.786Z,101174.84
2023-01-09T23:48:13.035Z,101180.13
2023-01-09T23:51:14.341Z,101193.25
2023-01-09T23:54:16.420Z,101195.88
2023-01-09T23:57:17.875Z,101190.69
